createdAt,value
2023-03-26T00:00:29.488Z,98898.80
2023-03-26T00:06:12.918Z,98899.00
2023-03-26T00:11:20.059Z,98891.20
2023-03-26T00:16:26.374Z,98886.80
2023-03-26T00:21:31.573Z,98892.80
2023-03-26T00:26:37.831Z,98888.20
2023-03-26T00:31:41.260Z,98882.40
2023-03-26T00:36:47.277Z,98876.00
2023-03-26T00:41:54.661Z,98876.80
2023-03-26T00:46:57.931Z,98876.00
2023-03-26T00:52:03.350Z,98870.80
2023-03-26T00:57:07.123Z,98868.40
2023-03-26T01:02:18.910Z,98860.80
2023-03-26T01:07:29.197Z,98860.20
2023-03-26T01:12:32.305Z,98859.20
2023-03-26T01:17:38.046Z,98860.60
2023-03-26T01:22:49.503Z,98858.20
2023-03-26T01:27:56.407Z,98859.00
2023-03-26T01:33:05.793Z,98851.20
2023-03-26T01:38:23.455Z,98845.80
2023-03-26T01:43:34.393Z,98842.80
2023-03-26T01:48:47.155Z,98838.80
2023-03-26T01:53:50.748Z,98836.60
2023-03-26T01:59:29.682Z,98821.60
2023-03-26T02:04:53.620Z,98821.20
2023-03-26T02:10:06.768Z,98815.40
2023-03-26T02:15:12.269Z,98822.40
2023-03-26T02:20:19.107Z,98810.00
2023-03-26T02:25:23.776Z,98810.00
2023-03-26T02:30:26.899Z,98810.60
2023-03-26T02:35:30.099Z,98812.40
2023-03-26T02:40:33.321Z,98808.00
2023-03-26T02:45:36.865Z,98804.20
2023-03-26T02:50:40.242Z,98806.80
2023-03-26T02:55:43.899Z,98803.40
2023-03-26T03:00:47.831Z,98802.20
2023-03-26T03:05:53.665Z,98801.00
2023-03-26T03:11:08.396Z,98787.00
2023-03-26T03:16:12.020Z,98782.40
2023-03-26T03:21:15.182Z,98780.80
2023-03-26T03:26:22.365Z,98779.40
2023-03-26T03:31:27.397Z,98781.00
2023-03-26T03:36:30.736Z,98781.20
2023-03-26T03:41:33.938Z,98778.40
2023-03-26T03:46:36.986Z,98781.40
2023-03-26T03:51:40.160Z,98774.60
2023-03-26T03:56:45.949Z,98771.20
2023-03-26T04:01:51.048Z,98769.00
2023-03-26T04:06:54.108Z,98767.00
2023-03-26T04:11:57.296Z,98775.00
2023-03-26T04:17:00.822Z,98775.40
2023-03-26T04:22:03.918Z,98769.40
2023-03-26T04:27:12.884Z,98764.20
2023-03-26T04:32:30.361Z,98761.60
2023-03-26T04:37:41.173Z,98759.20
2023-03-26T04:42:46.958Z,98756.80
2023-03-26T04:47:50.949Z,98749.80
2023-03-26T04:52:59.859Z,98744.00
2023-03-26T04:58:05.637Z,98743.20
2023-03-26T05:03:11.864Z,98737.80
2023-03-26T05:08:14.880Z,98738.20
2023-03-26T05:13:18.088Z,98737.20
2023-03-26T05:18:21.402Z,98743.40
2023-03-26T05:23:24.534Z,98734.20
2023-03-26T05:28:28.429Z,98733.00
2023-03-26T05:33:31.624Z,98736.20
2023-03-26T05:38:36.088Z,98731.60
2023-03-26T05:43:39.181Z,98731.40
2023-03-26T05:48:42.340Z,98726.80
2023-03-26T05:53:45.717Z,98726.80
2023-03-26T05:58:50.087Z,98730.40
2023-03-26T06:03:54.290Z,98736.00
2023-03-26T06:09:01.928Z,98730.20
2023-03-26T06:14:07.344Z,98733.00
2023-03-26T06:19:10.735Z,98731.00
2023-03-26T06:24:14.170Z,98731.60
2023-03-26T06:29:17.385Z,98733.60
2023-03-26T06:34:20.811Z,98729.00
2023-03-26T06:39:24.012Z,98730.00
2023-03-26T06:44:27.214Z,98726.40
2023-03-26T06:49:30.629Z,98723.80
2023-03-26T06:54:34.050Z,98729.20
2023-03-26T06:59:37.262Z,98728.20
2023-03-26T07:04:40.758Z,98724.80
2023-03-26T07:09:43.997Z,98727.40
2023-03-26T07:14:47.177Z,98728.80
2023-03-26T07:19:52.885Z,98723.80
2023-03-26T07:24:57.061Z,98721.60
2023-03-26T07:30:09.596Z,98726.60
2023-03-26T07:35:24.859Z,98720.20
2023-03-26T07:41:01.648Z,98724.80
2023-03-26T07:46:09.578Z,98722.00
2023-03-26T07:51:14.289Z,98721.00
2023-03-26T07:56:23.704Z,98718.40
2023-03-26T08:01:46.991Z,98713.40
2023-03-26T08:07:06.067Z,98709.40
2023-03-26T08:12:44.935Z,98702.20
2023-03-26T08:17:57.378Z,98703.00
2023-03-26T08:23:14.162Z,98705.00
2023-03-26T08:28:46.381Z,98701.80
2023-03-26T08:33:50.306Z,98699.60
2023-03-26T08:38:54.273Z,98705.60
2023-03-26T08:44:13.996Z,98705.60
2023-03-26T08:49:32.485Z,98701.00
2023-03-26T08:55:13.469Z,98700.40
2023-03-26T09:00:41.559Z,98699.00
2023-03-26T09:05:53.472Z,98697.80
2023-03-26T09:11:11.633Z,98696.40
2023-03-26T09:17:05.627Z,98692.80
2023-03-26T09:22:50.105Z,98703.00
2023-03-26T09:28:34.788Z,98706.80
2023-03-26T09:34:15.888Z,98717.00
2023-03-26T09:39:33.326Z,98722.40
2023-03-26T09:45:10.979Z,98721.60
2023-03-26T09:50:52.894Z,98724.20
2023-03-26T09:56:18.540Z,98728.00
2023-03-26T10:01:40.884Z,98723.20
2023-03-26T10:07:05.456Z,98712.20
2023-03-26T10:12:22.704Z,98716.60
2023-03-26T10:18:27.783Z,98718.80
2023-03-26T10:24:01.791Z,98719.60
2023-03-26T10:29:53.263Z,98713.80
2023-03-26T10:35:37.630Z,98712.80
2023-03-26T10:41:09.379Z,98716.60
2023-03-26T10:47:09.435Z,98713.00
2023-03-26T10:52:18.433Z,98711.80
2023-03-26T10:57:51.471Z,98706.80
2023-03-26T11:03:41.893Z,98717.20
2023-03-26T11:08:56.465Z,98724.00
2023-03-26T11:14:27.866Z,98722.20
2023-03-26T11:19:51.960Z,98721.00
2023-03-26T11:25:30.365Z,98726.00
2023-03-26T11:30:42.313Z,98727.20
2023-03-26T11:35:53.221Z,98713.40
2023-03-26T11:40:59.234Z,98711.60
2023-03-26T11:46:10.093Z,98706.80
2023-03-26T11:51:29.738Z,98708.40
2023-03-26T11:57:04.558Z,98696.20
2023-03-26T12:02:14.706Z,98699.00
2023-03-26T12:07:34.232Z,98703.60
2023-03-26T12:12:41.946Z,98709.60
2023-03-26T12:17:48.882Z,98724.40
2023-03-26T12:23:01.028Z,98745.20
2023-03-26T12:28:14.004Z,98769.20
2023-03-26T12:33:27.784Z,98790.40
2023-03-26T12:38:34.521Z,98792.60
2023-03-26T12:44:54.131Z,98788.00
2023-03-26T12:49:09.017Z,98766.60
2023-03-26T12:54:34.656Z,98770.40
2023-03-26T12:59:58.174Z,98765.60
2023-03-26T13:05:32.595Z,98763.40
2023-03-26T13:11:00.676Z,98761.40
2023-03-26T13:16:32.726Z,98761.00
2023-03-26T13:22:17.250Z,98749.20
2023-03-26T13:28:06.638Z,98755.60
2023-03-26T13:33:41.047Z,98749.20
2023-03-26T13:39:16.440Z,98748.20
2023-03-26T13:45:07.268Z,98752.60
2023-03-26T13:50:54.483Z,98755.00
2023-03-26T13:56:00.795Z,98762.40
2023-03-26T14:01:44.013Z,98760.80
2023-03-26T14:07:10.425Z,98764.40
2023-03-26T14:12:59.978Z,98766.00
2023-03-26T14:18:31.660Z,98765.60
2023-03-26T14:24:08.690Z,98763.80
2023-03-26T14:29:56.625Z,98762.80
2023-03-26T14:35:06.242Z,98762.80
2023-03-26T14:40:37.026Z,98773.00
2023-03-26T14:46:08.512Z,98786.20
2023-03-26T14:51:46.213Z,98790.80
2023-03-26T14:57:12.228Z,98798.80
2023-03-26T15:02:51.040Z,98799.00
2023-03-26T15:08:11.219Z,98799.20
2023-03-26T15:13:37.791Z,98797.60
2023-03-26T15:19:05.863Z,98806.80
2023-03-26T15:24:30.265Z,98808.60
2023-03-26T15:29:54.878Z,98809.80
2023-03-26T15:35:10.272Z,98814.20
2023-03-26T15:40:38.567Z,98813.60
2023-03-26T15:46:26.531Z,98818.60
2023-03-26T15:51:59.218Z,98823.60
2023-03-26T15:57:21.515Z,98831.40
2023-03-26T16:02:58.358Z,98825.00
2023-03-26T16:08:19.208Z,98823.00
2023-03-26T16:13:37.749Z,98822.40
2023-03-26T16:18:43.477Z,98823.40
2023-03-26T16:23:49.923Z,98834.20
2023-03-26T16:29:06.543Z,98841.00
2023-03-26T16:34:12.517Z,98844.60
2023-03-26T16:39:23.135Z,98863.00
2023-03-26T16:44:45.573Z,98861.80
2023-03-26T16:50:12.332Z,98852.40
2023-03-26T16:55:31.298Z,98849.80
2023-03-26T17:00:41.429Z,98851.40
2023-03-26T17:05:56.930Z,98848.00
2023-03-26T17:11:40.216Z,98855.80
2023-03-26T17:17:01.450Z,98861.80
2023-03-26T17:22:21.660Z,98869.40
2023-03-26T17:27:37.969Z,98881.20
2023-03-26T17:33:06.277Z,98877.20
2023-03-26T17:38:18.893Z,98892.60
2023-03-26T17:43:52.460Z,98905.00
2023-03-26T17:49:12.731Z,98914.60
2023-03-26T17:54:33.744Z,98913.20
2023-03-26T17:59:39.326Z,98910.40
2023-03-26T18:04:48.080Z,98908.80
2023-03-26T18:10:33.436Z,98911.20
2023-03-26T18:15:55.193Z,98915.80
2023-03-26T18:21:03.636Z,98921.60
2023-03-26T18:26:34.281Z,98919.80
2023-03-26T18:31:42.857Z,98920.60
2023-03-26T18:36:54.403Z,98913.00
2023-03-26T18:41:58.643Z,98915.60
2023-03-26T18:47:07.238Z,98921.40
2023-03-26T18:52:20.150Z,98911.40
2023-03-26T18:57:28.361Z,98897.40
2023-03-26T19:02:32.082Z,98909.20
2023-03-26T19:07:37.539Z,98905.20
2023-03-26T19:12:41.661Z,98907.40
2023-03-26T19:17:49.441Z,98924.40
2023-03-26T19:22:55.452Z,98937.60
2023-03-26T19:27:59.371Z,98932.40
2023-03-26T19:33:22.492Z,98924.40
2023-03-26T19:38:29.141Z,98927.00
2023-03-26T19:43:32.348Z,98930.00
2023-03-26T19:48:45.614Z,98929.80
2023-03-26T19:53:58.356Z,98923.40
2023-03-26T19:59:02.585Z,98921.00
2023-03-26T20:04:11.007Z,98924.80
2023-03-26T20:09:14.567Z,98932.40
2023-03-26T20:14:26.415Z,98924.60
2023-03-26T20:19:30.895Z,98925.00
2023-03-26T20:24:34.584Z,98920.20
2023-03-26T20:29:37.681Z,98913.20
2023-03-26T20:34:41.706Z,98910.40
2023-03-26T20:39:45.974Z,98912.00
2023-03-26T20:44:49.048Z,98911.20
2023-03-26T20:49:52.765Z,98911.00
2023-03-26T20:54:56.384Z,98909.40
2023-03-26T21:00:00.836Z,98907.80
2023-03-26T21:05:05.741Z,98906.80
2023-03-26T21:10:14.517Z,98903.80
2023-03-26T21:15:23.472Z,98904.80
2023-03-26T21:20:28.662Z,98904.60
2023-03-26T21:25:42.257Z,98908.20
2023-03-26T21:30:47.210Z,98911.40
2023-03-26T21:35:51.953Z,98917.40
2023-03-26T21:40:58.863Z,98916.60
2023-03-26T21:46:03.512Z,98918.80
2023-03-26T21:51:07.591Z,98922.80
2023-03-26T21:56:22.927Z,98913.00
2023-03-26T22:01:35.193Z,98914.00
2023-03-26T22:06:54.631Z,98926.40
2023-03-26T22:11:57.783Z,98921.60
2023-03-26T22:17:00.982Z,98921.00
2023-03-26T22:22:04.469Z,98919.20
2023-03-26T22:27:14.193Z,98910.00
2023-03-26T22:32:19.478Z,98921.80
2023-03-26T22:37:24.028Z,98921.40
2023-03-26T22:42:27.743Z,98925.40
2023-03-26T22:47:33.909Z,98927.40
2023-03-26T22:52:39.683Z,98933.20
2023-03-26T22:57:43.037Z,98939.60
2023-03-26T23:02:47.470Z,98937.40
2023-03-26T23:07:52.485Z,98939.00
2023-03-26T23:12:55.903Z,98937.20
2023-03-26T23:17:59.593Z,98935.60
2023-03-26T23:23:02.833Z,98944.40
2023-03-26T23:28:06.187Z,98936.60
2023-03-26T23:33:09.313Z,98934.20
2023-03-26T23:38:13.208Z,98929.60
2023-03-26T23:43:16.589Z,98921.20
2023-03-26T23:48:23.390Z,98927.00
2023-03-26T23:53:29.725Z,98925.60
2023-03-26T23:58:32.870Z,98925.00
